Time;durP1;ratioP1;P1;durP2;ratioP2;P2;SDS_P1;SDS_P2;PMS_P1;PMS_P2;Temp;Humidity;BMP_temperature;BMP_pressure;BME280_temperature;BME280_humidity;BME280_pressure;Samples;Min_cycle;Max_cycle;Signal;HPM_P1;HPM_P2
2021/01/30 00:05:02;;;;;;;6.87;2.67;;;;;;;;;;10307619;28;20209;-85
2021/01/30 00:10:05;;;;;;;8.57;3.30;;;;;;;;;;10304403;28;20209;-85
2021/01/30 00:15:07;;;;;;;7.00;3.67;;;;;;;;;;10306072;28;20289;-85
2021/01/30 00:20:12;;;;;;;8.10;3.20;;;;;;;;;;10305603;28;20620;-85
2021/01/30 00:25:14;;;;;;;5.33;2.27;;;;;;;;;;10310778;28;20206;-84
2021/01/30 00:30:18;;;;;;;4.57;2.30;;;;;;;;;;10298313;28;20247;-84
2021/01/30 00:35:21;;;;;;;5.07;2.50;;;;;;;;;;10284105;28;20276;-86
2021/01/30 00:40:23;;;;;;;3.57;1.90;;;;;;;;;;10313484;28;20214;-87
2021/01/30 00:45:26;;;;;;;2.90;2.00;;;;;;;;;;10306287;28;20534;-86
2021/01/30 00:50:29;;;;;;;3.77;2.20;;;;;;;;;;10304342;28;20209;-86
2021/01/30 00:55:31;;;;;;;2.30;2.10;;;;;;;;;;10309776;28;20323;-85
2021/01/30 01:00:33;;;;;;;2.97;2.10;;;;;;;;;;10299489;28;20217;-84
2021/01/30 01:05:38;;;;;;;3.07;2.27;;;;;;;;;;10304193;28;20734;-84
2021/01/30 01:10:39;;;;;;;4.47;2.60;;;;;;;;;;10295091;28;20228;-84
2021/01/30 01:15:41;;;;;;;4.00;2.70;;;;;;;;;;10295363;28;20245;-84
2021/01/30 01:20:44;;;;;;;3.07;2.70;;;;;;;;;;10300877;28;20221;-85
2021/01/30 01:25:46;;;;;;;4.50;3.03;;;;;;;;;;10301165;28;20222;-82
2021/01/30 01:30:48;;;;;;;4.00;3.50;;;;;;;;;;10306166;28;20222;-83
2021/01/30 01:35:51;;;;;;;4.13;3.33;;;;;;;;;;10298611;28;20241;-86
2021/01/30 01:40:53;;;;;;;4.37;3.33;;;;;;;;;;10306408;28;20993;-85
2021/01/30 01:46:01;;;;;;;3.80;3.03;;;;;;;;;;10301305;28;20240;-85
2021/01/30 01:51:05;;;;;;;4.00;3.40;;;;;;;;;;10305699;28;20220;-85
2021/01/30 01:56:24;;;;;;;3.43;3.13;;;;;;;;;;10309749;28;20241;-81
2021/01/30 02:01:26;;;;;;;4.10;2.80;;;;;;;;;;10281533;28;20217;-86
2021/01/30 02:06:29;;;;;;;5.50;3.43;;;;;;;;;;10306115;28;20547;-84
2021/01/30 02:11:31;;;;;;;4.37;3.43;;;;;;;;;;10296812;28;20720;-86
2021/01/30 02:16:40;;;;;;;4.67;3.77;;;;;;;;;;10297900;28;20245;-85
2021/01/30 02:22:06;;;;;;;4.00;3.60;;;;;;;;;;10285093;28;20224;-85
2021/01/30 02:27:24;;;;;;;4.30;3.53;;;;;;;;;;10309218;28;20255;-84
2021/01/30 02:32:31;;;;;;;4.37;3.70;;;;;;;;;;10303458;28;20728;-84
2021/01/30 02:37:38;;;;;;;3.87;3.57;;;;;;;;;;10307176;28;20220;-85
2021/01/30 02:42:42;;;;;;;3.87;3.40;;;;;;;;;;10303569;28;20631;-86
2021/01/30 02:47:47;;;;;;;6.90;3.97;;;;;;;;;;10312077;28;20280;-84
2021/01/30 02:52:54;;;;;;;4.00;3.60;;;;;;;;;;10301633;28;20233;-85
2021/01/30 02:57:56;;;;;;;3.77;3.43;;;;;;;;;;10310953;28;20227;-85
2021/01/30 03:02:58;;;;;;;4.27;3.63;;;;;;;;;;10303714;28;20249;-85
2021/01/30 03:08:14;;;;;;;4.30;3.90;;;;;;;;;;10306461;28;20233;-84
2021/01/30 03:13:19;;;;;;;5.13;3.97;;;;;;;;;;10302315;28;20264;-83
2021/01/30 03:18:23;;;;;;;4.77;4.27;;;;;;;;;;10303135;28;21434;-85
2021/01/30 03:23:27;;;;;;;4.50;3.73;;;;;;;;;;10290126;28;20220;-84
2021/01/30 03:28:29;;;;;;;5.70;4.00;;;;;;;;;;10306368;28;20222;-83
2021/01/30 03:33:31;;;;;;;5.23;3.97;;;;;;;;;;10310662;28;20241;-84
2021/01/30 03:38:35;;;;;;;4.53;3.23;;;;;;;;;;10298207;28;20224;-84
2021/01/30 03:43:36;;;;;;;4.03;3.60;;;;;;;;;;10303550;28;20698;-84
2021/01/30 03:48:38;;;;;;;4.50;4.10;;;;;;;;;;10305772;28;20679;-84
2021/01/30 03:53:41;;;;;;;4.67;3.97;;;;;;;;;;10306158;28;20249;-84
2021/01/30 03:58:45;;;;;;;4.23;3.83;;;;;;;;;;10315627;28;20225;-85
2021/01/30 04:03:47;;;;;;;3.97;3.40;;;;;;;;;;10300058;28;20582;-84
2021/01/30 04:08:50;;;;;;;4.37;3.60;;;;;;;;;;10304552;28;20584;-84
2021/01/30 04:13:53;;;;;;;5.13;3.10;;;;;;;;;;10305233;28;20284;-86
2021/01/30 04:18:55;;;;;;;4.03;3.10;;;;;;;;;;10302406;28;20222;-86
2021/01/30 04:23:58;;;;;;;4.57;3.20;;;;;;;;;;10305230;28;20240;-86
2021/01/30 04:29:00;;;;;;;3.63;3.07;;;;;;;;;;10312069;28;20308;-85
2021/01/30 04:34:02;;;;;;;3.90;2.70;;;;;;;;;;10311247;28;20252;-84
2021/01/30 04:39:05;;;;;;;4.23;2.77;;;;;;;;;;10299866;28;20210;-85
2021/01/30 04:44:10;;;;;;;3.47;3.00;;;;;;;;;;10312376;28;20213;-85
2021/01/30 04:49:16;;;;;;;2.90;2.47;;;;;;;;;;10309432;28;20700;-84
2021/01/30 04:54:30;;;;;;;3.40;3.00;;;;;;;;;;10303838;28;20233;-83
2021/01/30 04:59:37;;;;;;;3.03;2.73;;;;;;;;;;10286841;28;20751;-85
2021/01/30 05:04:42;;;;;;;5.30;3.00;;;;;;;;;;10307977;28;20213;-86
2021/01/30 05:09:48;;;;;;;3.97;2.90;;;;;;;;;;10301003;28;20591;-85
2021/01/30 05:14:54;;;;;;;3.20;2.90;;;;;;;;;;10319495;28;20288;-84
2021/01/30 05:19:58;;;;;;;4.40;3.10;;;;;;;;;;10329911;28;20300;-85
2021/01/30 05:25:01;;;;;;;5.07;3.13;;;;;;;;;;10330464;28;20208;-85
2021/01/30 05:30:08;;;;;;;4.03;3.23;;;;;;;;;;10331887;28;20213;-85
2021/01/30 05:35:12;;;;;;;3.43;2.93;;;;;;;;;;10347030;28;20241;-84
2021/01/30 05:40:24;;;;;;;6.53;3.30;;;;;;;;;;10347068;28;20213;-85
2021/01/30 05:45:33;;;;;;;3.70;3.20;;;;;;;;;;10337417;28;20300;-85
2021/01/30 05:50:38;;;;;;;3.70;3.00;;;;;;;;;;10316671;28;20217;-84
2021/01/30 05:55:41;;;;;;;3.63;2.90;;;;;;;;;;10307405;28;20237;-84
2021/01/30 06:00:43;;;;;;;4.50;3.20;;;;;;;;;;10303224;28;20554;-86
2021/01/30 06:05:46;;;;;;;5.53;3.37;;;;;;;;;;10301702;28;20325;-85
2021/01/30 06:10:51;;;;;;;4.27;3.27;;;;;;;;;;10304176;28;20224;-85
2021/01/30 06:15:54;;;;;;;3.70;3.10;;;;;;;;;;10319219;28;20244;-86
2021/01/30 06:20:57;;;;;;;4.20;3.40;;;;;;;;;;10300350;28;20674;-84
2021/01/30 06:26:08;;;;;;;4.43;3.40;;;;;;;;;;10307426;28;20213;-85
2021/01/30 06:31:15;;;;;;;4.90;3.30;;;;;;;;;;10296379;28;20628;-80
2021/01/30 06:36:19;;;;;;;4.73;3.30;;;;;;;;;;10296521;28;20739;-81
2021/01/30 06:41:24;;;;;;;3.73;3.33;;;;;;;;;;10295888;28;20747;-80
2021/01/30 06:46:26;;;;;;;6.53;3.87;;;;;;;;;;10294674;28;21705;-80
2021/01/30 06:51:29;;;;;;;4.10;3.47;;;;;;;;;;10297376;28;20226;-79
2021/01/30 06:56:35;;;;;;;4.23;3.50;;;;;;;;;;10296847;28;20328;-80
2021/01/30 07:01:39;;;;;;;4.07;3.60;;;;;;;;;;10298849;28;20217;-79
2021/01/30 07:06:46;;;;;;;4.00;3.40;;;;;;;;;;10290363;28;20316;-81
2021/01/30 07:11:54;;;;;;;3.90;3.30;;;;;;;;;;10298323;28;20490;-82
2021/01/30 07:16:59;;;;;;;4.60;3.50;;;;;;;;;;10300294;28;20664;-80
2021/01/30 07:22:03;;;;;;;3.73;3.30;;;;;;;;;;10294680;28;20217;-81
2021/01/30 07:27:09;;;;;;;5.23;3.87;;;;;;;;;;10298348;28;20214;-81
2021/01/30 07:32:14;;;;;;;4.63;3.40;;;;;;;;;;10296387;28;20213;-81
2021/01/30 07:37:20;;;;;;;4.53;3.20;;;;;;;;;;10293990;28;20626;-80
2021/01/30 07:42:26;;;;;;;4.17;3.50;;;;;;;;;;10297022;28;20650;-80
2021/01/30 07:47:35;;;;;;;4.10;3.70;;;;;;;;;;10300539;28;20272;-80
2021/01/30 07:52:41;;;;;;;4.27;3.13;;;;;;;;;;10279233;28;20245;-85
2021/01/30 07:57:56;;;;;;;4.23;3.50;;;;;;;;;;10298559;28;20221;-85
2021/01/30 08:03:16;;;;;;;4.50;3.30;;;;;;;;;;10303276;28;20217;-78
2021/01/30 08:08:22;;;;;;;5.13;3.63;;;;;;;;;;10299853;28;20300;-80
2021/01/30 08:13:31;;;;;;;5.23;3.77;;;;;;;;;;10296339;28;20261;-83
2021/01/30 08:18:35;;;;;;;5.03;3.60;;;;;;;;;;10282312;28;20224;-85
2021/01/30 08:23:42;;;;;;;4.10;3.70;;;;;;;;;;10290174;28;20376;-84
2021/01/30 08:28:50;;;;;;;4.37;3.70;;;;;;;;;;10283627;28;20225;-79
2021/01/30 08:34:03;;;;;;;4.27;3.67;;;;;;;;;;10294232;28;20709;-87
2021/01/30 08:39:08;;;;;;;4.50;4.03;;;;;;;;;;10282714;28;20365;-83
2021/01/30 08:44:26;;;;;;;5.50;4.57;;;;;;;;;;10275292;28;20209;-83
2021/01/30 08:49:28;;;;;;;5.60;4.67;;;;;;;;;;10297387;28;20222;-83
2021/01/30 08:54:31;;;;;;;5.43;4.40;;;;;;;;;;10293784;28;20261;-80
2021/01/30 08:59:42;;;;;;;6.67;4.70;;;;;;;;;;10294452;28;20658;-85
2021/01/30 09:04:45;;;;;;;5.20;4.67;;;;;;;;;;10309652;28;20224;-83
2021/01/30 09:10:02;;;;;;;5.77;4.80;;;;;;;;;;10307447;28;20219;-86
2021/01/30 09:15:06;;;;;;;5.93;4.50;;;;;;;;;;10303210;28;20237;-82
2021/01/30 09:20:12;;;;;;;4.83;4.33;;;;;;;;;;10295543;28;20220;-82
2021/01/30 09:25:17;;;;;;;5.40;4.57;;;;;;;;;;10299362;28;20256;-84
2021/01/30 09:30:31;;;;;;;6.00;4.67;;;;;;;;;;10303350;28;20241;-78
2021/01/30 09:35:36;;;;;;;5.87;4.67;;;;;;;;;;10296436;28;20693;-87
2021/01/30 09:40:38;;;;;;;4.97;4.30;;;;;;;;;;10304893;28;20221;-89
2021/01/30 09:45:48;;;;;;;5.60;4.57;;;;;;;;;;10304262;28;20300;-85
2021/01/30 09:50:50;;;;;;;6.27;4.20;;;;;;;;;;10300130;28;20317;-90
2021/01/30 09:55:57;;;;;;;6.93;4.60;;;;;;;;;;10302696;28;20291;-85
2021/01/30 10:01:04;;;;;;;4.97;4.30;;;;;;;;;;10289267;28;20650;-86
2021/01/30 10:06:11;;;;;;;5.50;4.40;;;;;;;;;;10288553;28;20213;-84
2021/01/30 10:11:14;;;;;;;6.80;4.37;;;;;;;;;;10299781;28;20512;-80
2021/01/30 10:16:18;;;;;;;6.90;4.20;;;;;;;;;;10292617;28;20267;-86
2021/01/30 10:21:30;;;;;;;5.33;4.63;;;;;;;;;;10290661;28;20228;-81
2021/01/30 10:26:32;;;;;;;35.03;4.70;;;;;;;;;;10287119;28;20681;-79
2021/01/30 10:31:37;;;;;;;7.87;4.07;;;;;;;;;;10291375;28;20222;-77
2021/01/30 10:36:40;;;;;;;4.57;3.80;;;;;;;;;;10286102;28;20241;-77
2021/01/30 10:41:42;;;;;;;7.17;3.90;;;;;;;;;;10278416;28;20218;-76
2021/01/30 10:46:45;;;;;;;5.83;3.90;;;;;;;;;;10286688;28;20217;-76
2021/01/30 10:51:48;;;;;;;3.97;3.53;;;;;;;;;;10288714;28;20238;-77
2021/01/30 10:57:04;;;;;;;4.67;3.70;;;;;;;;;;10283017;28;20241;-76
2021/01/30 11:02:19;;;;;;;7.53;3.57;;;;;;;;;;10290359;28;20536;-78
2021/01/30 11:07:21;;;;;;;4.93;3.80;;;;;;;;;;10286521;28;20743;-77
2021/01/30 11:12:24;;;;;;;4.27;3.70;;;;;;;;;;10289771;28;20275;-74
2021/01/30 11:17:30;;;;;;;4.60;3.60;;;;;;;;;;10293768;28;20232;-75
2021/01/30 11:22:33;;;;;;;4.87;3.63;;;;;;;;;;10289798;28;20221;-76
2021/01/30 11:27:37;;;;;;;4.30;3.80;;;;;;;;;;10299569;28;21215;-77
2021/01/30 11:32:40;;;;;;;5.87;3.60;;;;;;;;;;10297697;28;20239;-76
2021/01/30 11:37:42;;;;;;;4.87;3.43;;;;;;;;;;10297020;28;20690;-76
2021/01/30 11:42:44;;;;;;;4.80;3.53;;;;;;;;;;10302823;28;20214;-76
2021/01/30 11:47:47;;;;;;;4.03;3.50;;;;;;;;;;10305914;28;20224;-77
2021/01/30 11:52:49;;;;;;;3.77;3.20;;;;;;;;;;10300768;28;20225;-76
2021/01/30 11:57:51;;;;;;;3.77;3.33;;;;;;;;;;10299316;28;20762;-77
2021/01/30 12:02:54;;;;;;;5.53;3.30;;;;;;;;;;10282118;28;20222;-76
2021/01/30 12:07:56;;;;;;;4.50;3.50;;;;;;;;;;10283221;28;20268;-77
2021/01/30 12:12:58;;;;;;;3.70;3.27;;;;;;;;;;10294967;28;20245;-76
2021/01/30 12:18:01;;;;;;;4.23;3.70;;;;;;;;;;10298680;28;20225;-77
2021/01/30 12:23:03;;;;;;;7.17;4.60;;;;;;;;;;10310783;28;20214;-82
2021/01/30 12:28:06;;;;;;;7.37;3.70;;;;;;;;;;10292577;28;20254;-82
2021/01/30 12:33:13;;;;;;;9.07;4.13;;;;;;;;;;10268934;28;20260;-80
2021/01/30 12:38:33;;;;;;;5.27;3.80;;;;;;;;;;10286939;28;20231;-84
2021/01/30 12:43:35;;;;;;;5.07;4.10;;;;;;;;;;10276516;28;20217;-83
2021/01/30 12:48:38;;;;;;;4.37;3.40;;;;;;;;;;10283059;28;20222;-82
2021/01/30 12:53:40;;;;;;;8.23;4.00;;;;;;;;;;10293065;28;20234;-84
2021/01/30 12:58:42;;;;;;;5.97;3.87;;;;;;;;;;10286358;28;20214;-83
2021/01/30 13:03:45;;;;;;;4.20;3.47;;;;;;;;;;10278814;28;20259;-83
2021/01/30 13:09:30;;;;;;;5.00;4.27;;;;;;;;;;10297361;28;20621;-84
2021/01/30 13:14:33;;;;;;;6.03;3.97;;;;;;;;;;10274432;28;20241;-79
2021/01/30 13:19:37;;;;;;;4.37;3.93;;;;;;;;;;10292389;28;20206;-79
2021/01/30 13:24:42;;;;;;;5.90;4.63;;;;;;;;;;10292681;28;20307;-83
2021/01/30 13:29:45;;;;;;;6.07;4.30;;;;;;;;;;10273000;28;20230;-85
2021/01/30 13:34:48;;;;;;;7.87;5.13;;;;;;;;;;10271734;28;20233;-82
2021/01/30 13:40:03;;;;;;;6.50;4.47;;;;;;;;;;10284347;28;20606;-85
2021/01/30 13:45:07;;;;;;;6.43;4.43;;;;;;;;;;10298748;28;20213;-84
2021/01/30 13:50:10;;;;;;;5.80;4.73;;;;;;;;;;10293122;28;20225;-85
2021/01/30 13:55:13;;;;;;;5.80;4.73;;;;;;;;;;10293484;28;20238;-86
2021/01/30 14:00:18;;;;;;;5.37;4.30;;;;;;;;;;10293018;28;20228;-88
2021/01/30 14:05:26;;;;;;;6.83;4.80;;;;;;;;;;10298177;28;20217;-80
2021/01/30 14:10:29;;;;;;;8.03;5.10;;;;;;;;;;10301425;28;20602;-80
2021/01/30 14:15:31;;;;;;;5.60;4.53;;;;;;;;;;10295721;28;20652;-78
2021/01/30 14:20:35;;;;;;;6.30;4.60;;;;;;;;;;10291529;28;20233;-80
2021/01/30 14:25:36;;;;;;;6.13;4.93;;;;;;;;;;10290253;28;20657;-80
2021/01/30 14:30:39;;;;;;;8.33;5.07;;;;;;;;;;10287675;28;20628;-80
2021/01/30 14:35:42;;;;;;;6.13;4.67;;;;;;;;;;10291465;28;20248;-80
2021/01/30 14:40:45;;;;;;;5.93;4.77;;;;;;;;;;10288124;28;20221;-82
2021/01/30 14:45:48;;;;;;;6.17;4.63;;;;;;;;;;10294847;28;20229;-86
2021/01/30 14:50:51;;;;;;;7.70;4.57;;;;;;;;;;10297051;28;20221;-85
2021/01/30 14:55:53;;;;;;;8.10;5.70;;;;;;;;;;10295593;28;20318;-82
2021/01/30 15:00:55;;;;;;;7.00;4.97;;;;;;;;;;10296730;28;20209;-81
2021/01/30 15:05:58;;;;;;;8.37;5.80;;;;;;;;;;10289715;28;20209;-80
2021/01/30 15:11:00;;;;;;;9.57;5.70;;;;;;;;;;10297775;28;20225;-79
2021/01/30 15:16:07;;;;;;;8.17;5.93;;;;;;;;;;10292006;28;20265;-80
2021/01/30 15:21:11;;;;;;;9.30;6.00;;;;;;;;;;10301735;28;20249;-82
2021/01/30 15:26:13;;;;;;;9.70;6.70;;;;;;;;;;10301499;28;20218;-81
2021/01/30 15:31:20;;;;;;;8.87;6.40;;;;;;;;;;10295226;28;20214;-82
2021/01/30 15:36:23;;;;;;;8.43;6.33;;;;;;;;;;10297500;28;20233;-83
2021/01/30 15:41:25;;;;;;;10.33;7.20;;;;;;;;;;10294835;28;20205;-83
2021/01/30 15:46:27;;;;;;;8.17;5.87;;;;;;;;;;10291894;28;20679;-82
2021/01/30 15:51:30;;;;;;;10.30;7.07;;;;;;;;;;10292881;28;20308;-79
2021/01/30 15:56:32;;;;;;;9.03;6.73;;;;;;;;;;10295750;28;20882;-79
2021/01/30 16:01:41;;;;;;;10.20;6.93;;;;;;;;;;10291890;28;20277;-94
2021/01/30 16:06:47;;;;;;;15.23;8.60;;;;;;;;;;10385185;23;20245;-79
2021/01/30 16:11:49;;;;;;;14.10;8.97;;;;;;;;;;10248377;28;20285;-77
2021/01/30 16:16:51;;;;;;;11.90;7.93;;;;;;;;;;10250205;28;20238;-78
2021/01/30 16:21:55;;;;;;;12.87;8.73;;;;;;;;;;10253500;28;20223;-79
2021/01/30 16:27:03;;;;;;;14.33;8.87;;;;;;;;;;10246436;28;21120;-79
2021/01/30 16:32:05;;;;;;;15.50;8.93;;;;;;;;;;10245476;28;20242;-78
2021/01/30 16:37:12;;;;;;;11.97;8.50;;;;;;;;;;10245144;28;20246;-79
2021/01/30 16:42:15;;;;;;;13.30;8.77;;;;;;;;;;10251350;28;20680;-78
2021/01/30 16:47:18;;;;;;;13.20;9.03;;;;;;;;;;10251054;28;20229;-80
2021/01/30 16:52:21;;;;;;;12.90;8.90;;;;;;;;;;10250018;28;20220;-79
2021/01/30 16:57:27;;;;;;;13.87;9.10;;;;;;;;;;10244839;28;20233;-79
2021/01/30 17:02:58;;;;;;;14.67;9.50;;;;;;;;;;10251733;28;20226;-85
2021/01/30 17:08:24;;;;;;;13.67;9.60;;;;;;;;;;10251749;28;20218;-83
2021/01/30 17:13:36;;;;;;;14.23;9.20;;;;;;;;;;10246366;28;20246;-85
2021/01/30 17:18:39;;;;;;;16.70;10.60;;;;;;;;;;10265233;28;20309;-90
2021/01/30 17:23:42;;;;;;;16.10;10.30;;;;;;;;;;10255064;28;20218;-88
2021/01/30 17:28:48;;;;;;;15.47;10.30;;;;;;;;;;10251564;28;20602;-78
2021/01/30 17:33:50;;;;;;;18.85;11.98;;;;;;;;;;10241154;28;20544;-81
2021/01/30 17:38:59;;;;;;;16.97;11.43;;;;;;;;;;10235568;28;20233;-82
2021/01/30 17:44:01;;;;;;;16.97;11.53;;;;;;;;;;10236519;28;20214;-83
2021/01/30 17:49:03;;;;;;;18.70;11.30;;;;;;;;;;10230043;28;20234;-82
2021/01/30 17:54:06;;;;;;;17.60;11.60;;;;;;;;;;10233110;28;20791;-82
2021/01/30 17:59:09;;;;;;;18.30;11.57;;;;;;;;;;10230002;28;20218;-83
2021/01/30 18:04:16;;;;;;;17.90;11.27;;;;;;;;;;10236223;28;20218;-84
2021/01/30 18:09:20;;;;;;;17.90;11.37;;;;;;;;;;10239161;28;20437;-83
2021/01/30 18:14:22;;;;;;;20.77;11.63;;;;;;;;;;10237058;28;20715;-84
2021/01/30 18:19:25;;;;;;;19.23;12.13;;;;;;;;;;10240754;28;20298;-83
2021/01/30 18:24:28;;;;;;;20.43;12.67;;;;;;;;;;10238471;28;20301;-83
2021/01/30 18:29:30;;;;;;;19.20;11.97;;;;;;;;;;10239337;28;20210;-83
2021/01/30 18:34:32;;;;;;;22.50;13.13;;;;;;;;;;10243137;28;20257;-84
2021/01/30 18:39:35;;;;;;;20.00;12.27;;;;;;;;;;10238016;28;20210;-83
2021/01/30 18:44:37;;;;;;;18.57;12.33;;;;;;;;;;10253927;28;20233;-83
2021/01/30 18:49:39;;;;;;;21.27;12.77;;;;;;;;;;10286614;28;20302;-82
2021/01/30 18:54:42;;;;;;;19.93;12.80;;;;;;;;;;10271714;28;20484;-86
2021/01/30 18:59:44;;;;;;;22.03;13.63;;;;;;;;;;10255030;28;20214;-80
2021/01/30 19:04:46;;;;;;;21.07;13.83;;;;;;;;;;10247748;28;20679;-79
2021/01/30 19:09:49;;;;;;;21.33;13.20;;;;;;;;;;10244683;28;20218;-80
2021/01/30 19:14:50;;;;;;;19.03;12.50;;;;;;;;;;10235889;28;20680;-81
2021/01/30 19:19:53;;;;;;;19.63;12.60;;;;;;;;;;10244339;28;20222;-80
2021/01/30 19:24:58;;;;;;;20.40;12.93;;;;;;;;;;10238971;28;20217;-78
2021/01/30 19:30:00;;;;;;;22.13;13.60;;;;;;;;;;10241936;28;20218;-79
2021/01/30 19:35:02;;;;;;;22.13;13.07;;;;;;;;;;10245944;28;20802;-79
2021/01/30 19:40:07;;;;;;;20.97;13.13;;;;;;;;;;10242838;28;20304;-79
2021/01/30 19:45:11;;;;;;;20.60;12.80;;;;;;;;;;10245310;28;20242;-80
2021/01/30 19:50:14;;;;;;;21.67;13.83;;;;;;;;;;10249363;28;20298;-79
2021/01/30 19:55:17;;;;;;;20.53;13.77;;;;;;;;;;10229879;28;20766;-78
2021/01/30 20:00:19;;;;;;;21.30;13.70;;;;;;;;;;10250110;28;20537;-79
2021/01/30 20:05:34;;;;;;;22.53;14.17;;;;;;;;;;10248068;28;20222;-81
2021/01/30 20:10:38;;;;;;;24.13;14.77;;;;;;;;;;10253526;28;20397;-80
2021/01/30 20:15:40;;;;;;;22.27;14.00;;;;;;;;;;10242645;28;20292;-80
2021/01/30 20:20:42;;;;;;;24.30;14.70;;;;;;;;;;10253238;28;20222;-81
2021/01/30 20:25:45;;;;;;;21.50;13.43;;;;;;;;;;10240206;28;20315;-79
2021/01/30 20:30:48;;;;;;;22.00;13.40;;;;;;;;;;10248458;28;20569;-83
2021/01/30 20:35:50;;;;;;;23.40;13.60;;;;;;;;;;10249859;28;20246;-84
2021/01/30 20:40:55;;;;;;;21.53;13.63;;;;;;;;;;10248314;28;20219;-84
2021/01/30 20:45:59;;;;;;;22.63;13.83;;;;;;;;;;10248509;28;20710;-89
2021/01/30 20:51:02;;;;;;;23.83;14.37;;;;;;;;;;10245323;28;20300;-81
2021/01/30 20:56:06;;;;;;;22.30;14.03;;;;;;;;;;10249958;28;20305;-82
2021/01/30 21:01:08;;;;;;;21.87;13.90;;;;;;;;;;10246063;28;20218;-82
2021/01/30 21:06:10;;;;;;;24.10;14.47;;;;;;;;;;10247268;28;20218;-86
2021/01/30 21:11:13;;;;;;;24.80;14.83;;;;;;;;;;10247694;28;21055;-85
2021/01/30 21:16:16;;;;;;;20.67;13.47;;;;;;;;;;10253926;28;20305;-82
2021/01/30 21:21:19;;;;;;;24.70;14.57;;;;;;;;;;10251800;28;20206;-85
2021/01/30 21:26:23;;;;;;;23.73;14.37;;;;;;;;;;10253835;28;20686;-85
2021/01/30 21:31:26;;;;;;;22.10;13.47;;;;;;;;;;10252827;28;20313;-88
2021/01/30 21:36:29;;;;;;;22.70;13.60;;;;;;;;;;10251362;28;20324;-85
2021/01/30 21:41:33;;;;;;;23.20;14.60;;;;;;;;;;10250321;28;20601;-82
2021/01/30 21:46:35;;;;;;;23.87;13.60;;;;;;;;;;10248017;28;20303;-84
2021/01/30 21:51:38;;;;;;;23.13;13.70;;;;;;;;;;10248381;28;20221;-86
2021/01/30 21:56:44;;;;;;;21.30;13.53;;;;;;;;;;10252114;28;20328;-83
2021/01/30 22:01:46;;;;;;;24.37;13.97;;;;;;;;;;10255819;28;20702;-85
2021/01/30 22:06:48;;;;;;;24.83;14.50;;;;;;;;;;10249732;28;20222;-84
2021/01/30 22:11:51;;;;;;;22.20;13.60;;;;;;;;;;10244696;28;20241;-84
2021/01/30 22:16:53;;;;;;;21.40;13.33;;;;;;;;;;10244751;28;20246;-87
2021/01/30 22:21:56;;;;;;;22.73;13.53;;;;;;;;;;10252857;28;20214;-85
2021/01/30 22:26:59;;;;;;;21.73;13.73;;;;;;;;;;10247185;28;20720;-83
2021/01/30 22:32:01;;;;;;;22.27;13.20;;;;;;;;;;10250261;28;20218;-85
2021/01/30 22:37:03;;;;;;;21.77;13.33;;;;;;;;;;10249056;28;20242;-84
2021/01/30 22:42:08;;;;;;;22.47;12.83;;;;;;;;;;10246577;28;20335;-81
2021/01/30 22:47:10;;;;;;;21.90;13.40;;;;;;;;;;10248130;28;20816;-80
2021/01/30 22:52:12;;;;;;;21.77;13.03;;;;;;;;;;10244423;28;20225;-85
2021/01/30 22:57:14;;;;;;;21.50;12.67;;;;;;;;;;10244392;28;20757;-85
2021/01/30 23:02:21;;;;;;;25.70;14.97;;;;;;;;;;10248324;28;20218;-82
2021/01/30 23:07:22;;;;;;;25.13;13.93;;;;;;;;;;10245901;28;20229;-83
2021/01/30 23:12:25;;;;;;;23.27;13.60;;;;;;;;;;10248935;28;20649;-82
2021/01/30 23:17:27;;;;;;;21.60;12.97;;;;;;;;;;10256783;28;20250;-79
2021/01/30 23:22:29;;;;;;;24.80;13.90;;;;;;;;;;10247321;28;20554;-83
2021/01/30 23:27:32;;;;;;;23.27;13.73;;;;;;;;;;10258103;28;20657;-83
2021/01/30 23:32:36;;;;;;;22.40;13.70;;;;;;;;;;10255028;28;20222;-83
2021/01/30 23:37:38;;;;;;;24.90;14.30;;;;;;;;;;10252370;28;20238;-83
2021/01/30 23:42:42;;;;;;;23.73;14.70;;;;;;;;;;10251471;28;20230;-81
2021/01/30 23:47:44;;;;;;;25.03;13.73;;;;;;;;;;10255050;28;20220;-82
2021/01/30 23:52:47;;;;;;;22.50;14.23;;;;;;;;;;10250913;28;20226;-81
2021/01/30 23:57:49;;;;;;;24.63;14.90;;;;;;;;;;10255235;28;20234;-82
